createdAt,value
2019-04-23T00:01:13.307Z,93.76
2019-04-23T00:03:30.250Z,94.17
2019-04-23T00:06:10.304Z,94.86
2019-04-23T00:08:36.536Z,95.67
2019-04-23T00:11:08.683Z,96.10
2019-04-23T00:13:40.776Z,95.90
2019-04-23T00:16:27.658Z,95.56
2019-04-23T00:18:42.593Z,95.25
2019-04-23T00:21:34.604Z,95.28
2019-04-23T00:24:15.849Z,95.27
2019-04-23T00:26:37.009Z,95.46
2019-04-23T00:29:22.382Z,95.13
2019-04-23T00:31:44.417Z,94.68
2019-04-23T00:34:09.390Z,94.40
2019-04-23T00:36:42.334Z,94.30
2019-04-23T00:39:08.613Z,94.19
2019-04-23T00:41:44.176Z,94.41
2019-04-23T00:44:14.960Z,94.60
2019-04-23T00:46:40.116Z,94.46
2019-04-23T00:49:21.149Z,94.56
2019-04-23T00:51:56.595Z,94.75
2019-04-23T00:54:17.787Z,94.78
2019-04-23T00:56:57.042Z,94.78
2019-04-23T00:59:21.074Z,94.76
2019-04-23T01:04:27.962Z,94.39
2019-04-23T01:06:58.296Z,94.08
2019-04-23T01:09:29.299Z,94.15
2019-04-23T01:12:00.924Z,94.58
2019-04-23T01:14:28.969Z,94.71
2019-04-23T01:17:02.198Z,95.94
2019-04-23T01:19:37.291Z,96.24
2019-04-23T01:21:54.027Z,96.31
2019-04-23T01:25:09.767Z,96.15
2019-04-23T01:28:02.521Z,95.10
2019-04-23T01:30:34.322Z,94.12
2019-04-23T01:33:03.371Z,93.82
2019-04-23T01:35:36.419Z,94.21
2019-04-23T01:38:06.073Z,94.34
2019-04-23T01:40:39.426Z,96.77
2019-04-23T01:43:08.011Z,96.22
2019-04-23T01:45:54.468Z,96.14
2019-04-23T01:48:04.685Z,95.93
2019-04-23T01:50:48.361Z,95.92
2019-04-23T01:53:24.019Z,95.92
2019-04-23T01:55:47.287Z,96.06
2019-04-23T02:00:47.912Z,96.15
2019-04-23T02:03:20.806Z,96.15
2019-04-23T02:05:55.531Z,96.42
2019-04-23T02:08:20.416Z,97.32
2019-04-23T02:10:58.854Z,96.89
2019-04-23T02:13:31.170Z,96.35
2019-04-23T02:15:53.401Z,94.41
2019-04-23T02:18:41.527Z,92.72
2019-04-23T02:21:04.651Z,92.08
2019-04-23T02:23:44.372Z,91.37
2019-04-23T02:26:30.046Z,91.20
2019-04-23T02:29:03.663Z,90.80
2019-04-23T02:34:31.252Z,91.32
2019-04-23T02:37:06.772Z,92.12
2019-04-23T02:39:51.491Z,92.96
2019-04-23T02:42:43.291Z,93.58
2019-04-23T02:45:09.430Z,93.54
2019-04-23T02:47:44.026Z,93.46
2019-04-23T02:50:34.931Z,90.61
2019-04-23T02:52:49.405Z,89.84
2019-04-23T02:55:17.741Z,88.98
2019-04-23T02:57:44.175Z,88.13
2019-04-23T03:05:40.229Z,86.26
2019-04-23T03:08:00.633Z,86.00
2019-04-23T03:10:20.451Z,85.42
2019-04-23T03:15:52.248Z,84.04
2019-04-23T03:23:49.924Z,82.18
2019-04-23T03:26:09.115Z,82.21
2019-04-23T03:34:38.374Z,81.34
2019-04-23T03:48:47.686Z,80.41
2019-04-23T03:51:16.257Z,80.67
2019-04-23T03:53:54.345Z,80.59
2019-04-23T03:56:29.457Z,80.81
2019-04-23T04:06:43.670Z,79.51
2019-04-23T04:11:20.636Z,78.12
2019-04-23T04:14:12.154Z,78.11
2019-04-23T04:16:28.385Z,77.94
2019-04-23T04:21:34.478Z,77.39
2019-04-23T04:29:11.705Z,75.11
2019-04-23T04:31:43.015Z,74.53
2019-04-23T04:34:30.976Z,74.70
2019-04-23T04:36:45.929Z,74.27
2019-04-23T04:38:59.126Z,73.92
2019-04-23T04:41:44.099Z,73.31
2019-04-23T04:44:30.967Z,71.82
2019-04-23T04:46:45.583Z,69.48
2019-04-23T04:49:12.066Z,68.23
2019-04-23T04:52:01.110Z,67.67
2019-04-23T04:54:21.598Z,66.84
2019-04-23T04:56:42.720Z,66.12
2019-04-23T05:02:01.208Z,64.37
2019-04-23T05:07:02.552Z,63.61
2019-04-23T05:19:45.145Z,57.77
2019-04-23T05:24:31.802Z,56.71
2019-04-23T05:26:59.718Z,56.63
2019-04-23T05:29:30.600Z,55.22
2019-04-23T05:31:59.324Z,54.35
2019-04-23T05:37:00.096Z,53.32
2019-04-23T05:39:35.260Z,52.84
2019-04-23T05:42:07.176Z,52.50
2019-04-23T05:44:41.711Z,51.20
2019-04-23T05:49:42.478Z,52.00
2019-04-23T05:52:09.578Z,51.16
2019-04-23T05:57:12.257Z,49.17
2019-04-23T05:59:41.903Z,47.39
2019-04-23T06:02:11.533Z,46.74
2019-04-23T06:04:43.153Z,46.65
2019-04-23T06:09:53.184Z,46.63
2019-04-23T06:12:19.038Z,46.41
2019-04-23T06:14:55.557Z,45.97
2019-04-23T06:17:27.342Z,45.88
2019-04-23T06:19:57.031Z,45.78
2019-04-23T06:22:28.994Z,47.83
2019-04-23T06:25:09.324Z,46.63
2019-04-23T06:27:27.667Z,45.61
2019-04-23T06:29:57.428Z,45.51
2019-04-23T06:32:34.129Z,44.85
2019-04-23T06:34:56.894Z,44.94
2019-04-23T06:39:59.847Z,43.13
2019-04-23T06:42:34.837Z,41.65
2019-04-23T06:45:07.184Z,43.24
2019-04-23T06:47:37.533Z,43.68
2019-04-23T06:50:03.576Z,44.22
2019-04-23T06:52:31.875Z,44.22
2019-04-23T06:55:17.847Z,43.54
2019-04-23T06:57:38.400Z,43.54
2019-04-23T07:00:17.588Z,43.00
2019-04-23T07:02:50.410Z,44.19
2019-04-23T07:05:15.816Z,44.19
2019-04-23T07:10:20.378Z,42.04
2019-04-23T07:12:49.257Z,43.86
2019-04-23T07:15:33.645Z,42.84
2019-04-23T07:17:51.527Z,43.39
2019-04-23T07:20:25.251Z,43.00
2019-04-23T07:22:56.956Z,43.99
2019-04-23T07:25:29.576Z,43.02
2019-04-23T07:27:59.067Z,41.93
2019-04-23T07:30:29.702Z,41.93
2019-04-23T07:33:01.840Z,41.33
2019-04-23T07:35:25.020Z,40.76
2019-04-23T07:38:01.847Z,39.42
2019-04-23T07:40:32.605Z,39.97
2019-04-23T07:43:31.709Z,39.68
2019-04-23T07:46:30.584Z,38.30
2019-04-23T07:48:45.806Z,39.22
2019-04-23T07:51:19.490Z,37.05
2019-04-23T07:54:05.923Z,38.35
2019-04-23T07:56:24.117Z,39.02
2019-04-23T07:58:57.029Z,39.50
2019-04-23T08:01:17.509Z,38.95
2019-04-23T08:03:59.273Z,40.74
2019-04-23T08:06:21.575Z,39.33
2019-04-23T08:08:58.050Z,39.60
2019-04-23T08:14:04.816Z,39.53
2019-04-23T08:19:00.122Z,39.74
2019-04-23T08:21:40.267Z,40.49
2019-04-23T08:24:38.074Z,40.78
2019-04-23T08:29:36.151Z,39.42
2019-04-23T08:32:16.471Z,38.81
2019-04-23T08:39:46.465Z,40.42
2019-04-23T08:45:22.674Z,39.31
2019-04-23T08:48:18.734Z,40.52
2019-04-23T08:50:37.169Z,40.89
2019-04-23T08:53:27.544Z,39.79
2019-04-23T08:55:49.867Z,38.87
2019-04-23T08:58:23.585Z,38.54
2019-04-23T09:00:52.661Z,38.98
2019-04-23T09:03:25.246Z,40.06
2019-04-23T09:05:53.043Z,39.15
2019-04-23T09:08:23.396Z,39.76
2019-04-23T09:10:56.786Z,39.30
2019-04-23T09:13:50.131Z,38.48
2019-04-23T09:15:56.204Z,39.24
2019-04-23T09:20:58.081Z,38.98
2019-04-23T09:23:34.477Z,38.86
2019-04-23T09:25:57.850Z,39.08
2019-04-23T09:31:17.316Z,39.41
2019-04-23T09:36:58.163Z,40.56
2019-04-23T09:39:58.919Z,39.87
2019-04-23T09:50:42.074Z,40.11
2019-04-23T09:53:19.122Z,40.31
2019-04-23T09:55:41.647Z,38.85
2019-04-23T09:58:11.910Z,39.75
2019-04-23T10:03:07.603Z,41.06
2019-04-23T10:05:33.646Z,40.26
2019-04-23T10:08:02.891Z,40.56
2019-04-23T10:10:26.137Z,39.85
2019-04-23T10:12:55.799Z,39.40
2019-04-23T10:15:31.420Z,41.58
2019-04-23T10:17:58.158Z,41.83
2019-04-23T10:20:28.970Z,41.85
2019-04-23T10:23:00.033Z,40.00
2019-04-23T10:25:30.168Z,41.14
2019-04-23T10:28:04.961Z,41.22
2019-04-23T10:30:31.211Z,40.11
2019-04-23T10:33:01.407Z,40.85
2019-04-23T10:35:41.455Z,40.04
2019-04-23T10:38:06.331Z,38.66
2019-04-23T10:40:38.013Z,40.20
2019-04-23T10:43:05.439Z,39.79
2019-04-23T10:46:28.336Z,40.09
2019-04-23T10:49:50.856Z,40.10
2019-04-23T10:52:04.908Z,40.33
2019-04-23T10:54:38.922Z,40.33
2019-04-23T10:57:01.806Z,39.92
2019-04-23T10:59:40.386Z,38.79
2019-04-23T11:02:31.627Z,38.55
2019-04-23T11:10:05.815Z,40.91
2019-04-23T11:13:11.757Z,38.53
2019-04-23T11:15:33.753Z,40.86
2019-04-23T11:17:52.412Z,41.97
2019-04-23T11:28:11.781Z,51.94
2019-04-23T11:38:36.937Z,53.13
2019-04-23T11:40:56.677Z,53.50
2019-04-23T11:43:14.703Z,54.24
2019-04-23T11:48:33.036Z,52.29
2019-04-23T11:53:20.514Z,51.62
2019-04-23T11:55:54.036Z,52.97
2019-04-23T11:58:37.643Z,52.21
2019-04-23T12:07:14.827Z,53.09
2019-04-23T12:09:50.066Z,52.07
2019-04-23T12:14:47.277Z,52.47
2019-04-23T12:20:06.403Z,52.89
2019-04-23T12:22:30.138Z,52.48
2019-04-23T12:27:27.555Z,52.52
2019-04-23T12:30:03.555Z,54.00
2019-04-23T12:38:15.442Z,53.77
2019-04-23T12:40:38.283Z,53.28
2019-04-23T12:43:17.865Z,53.07
2019-04-23T12:48:31.251Z,54.04
2019-04-23T12:53:29.348Z,54.53
2019-04-23T12:58:26.744Z,54.49
2019-04-23T13:00:48.105Z,53.92
2019-04-23T13:03:25.424Z,53.53
2019-04-23T13:05:47.696Z,54.42
2019-04-23T13:08:36.126Z,54.15
2019-04-23T13:11:03.465Z,54.61
2019-04-23T13:13:31.505Z,54.27
2019-04-23T13:16:06.399Z,54.30
2019-04-23T13:18:31.877Z,54.34
2019-04-23T13:21:17.730Z,54.28
2019-04-23T13:25:59.698Z,54.66
2019-04-23T13:28:38.835Z,54.86
2019-04-23T13:33:53.560Z,55.52
2019-04-23T13:36:18.956Z,55.52
2019-04-23T13:38:41.793Z,55.06
2019-04-23T13:41:23.160Z,54.88
2019-04-23T13:46:28.763Z,54.40
2019-04-23T13:48:42.203Z,54.78
2019-04-23T13:51:21.141Z,55.04
2019-04-23T13:53:53.623Z,55.24
2019-04-23T13:56:31.587Z,54.82
2019-04-23T13:58:59.672Z,54.44
2019-04-23T14:04:11.948Z,54.32
2019-04-23T14:06:35.133Z,54.32
2019-04-23T14:16:48.507Z,53.26
2019-04-23T14:19:13.012Z,52.88
2019-04-23T14:21:39.166Z,52.61
2019-04-23T14:25:01.151Z,52.93
2019-04-23T14:26:34.937Z,53.26
2019-04-23T14:29:07.286Z,53.51
2019-04-23T14:31:37.099Z,53.54
2019-04-23T14:36:42.562Z,52.96
2019-04-23T14:39:22.051Z,53.73
2019-04-23T14:41:46.081Z,53.49
2019-04-23T14:44:19.747Z,53.59
2019-04-23T14:46:58.438Z,52.91
2019-04-23T14:49:40.878Z,52.86
2019-04-23T14:55:06.012Z,53.41
2019-04-23T14:57:09.438Z,53.22
2019-04-23T14:59:32.193Z,52.91
2019-04-23T15:02:14.481Z,53.18
2019-04-23T15:04:43.675Z,53.74
2019-04-23T15:07:16.850Z,53.98
2019-04-23T15:09:53.527Z,53.75
2019-04-23T15:12:22.581Z,54.02
2019-04-23T15:14:51.234Z,53.90
2019-04-23T15:17:20.553Z,53.75
2019-04-23T15:20:08.170Z,54.18
2019-04-23T15:22:21.650Z,54.41
2019-04-23T15:25:01.377Z,54.47
2019-04-23T15:29:49.196Z,54.89
2019-04-23T15:32:40.160Z,55.07
2019-04-23T15:35:05.374Z,55.37
2019-04-23T15:37:45.178Z,55.30
2019-04-23T15:40:11.079Z,55.52
2019-04-23T15:42:32.951Z,54.59
2019-04-23T15:45:01.360Z,54.03
2019-04-23T15:47:40.479Z,53.35
2019-04-23T15:50:10.914Z,54.36
2019-04-23T15:52:44.340Z,55.76
2019-04-23T16:00:05.403Z,56.36
2019-04-23T16:02:11.832Z,56.32
2019-04-23T16:04:41.137Z,56.44
2019-04-23T16:07:16.462Z,57.03
2019-04-23T16:12:49.173Z,56.24
2019-04-23T16:17:45.163Z,55.58
2019-04-23T16:20:28.802Z,56.35
2019-04-23T16:22:44.403Z,57.11
2019-04-23T16:25:17.419Z,57.58
2019-04-23T16:27:57.650Z,57.32
2019-04-23T16:40:47.555Z,58.08
2019-04-23T16:43:19.858Z,58.26
2019-04-23T16:51:12.315Z,56.61
2019-04-23T16:53:27.488Z,57.51
2019-04-23T16:56:04.131Z,58.79
2019-04-23T16:58:33.722Z,59.22
2019-04-23T17:03:31.374Z,59.15
2019-04-23T17:06:21.827Z,58.94
2019-04-23T17:08:53.953Z,58.81
2019-04-23T17:11:13.061Z,59.13
2019-04-23T17:13:59.088Z,59.27
2019-04-23T17:18:41.826Z,58.79
2019-04-23T17:21:24.220Z,58.34
2019-04-23T17:23:53.196Z,58.18
2019-04-23T17:28:44.913Z,59.67
2019-04-23T17:39:14.522Z,59.33
2019-04-23T17:42:19.641Z,59.00
2019-04-23T17:47:24.473Z,60.21
2019-04-23T17:50:01.582Z,60.37
2019-04-23T17:52:26.263Z,60.58
2019-04-23T17:54:59.772Z,60.64
2019-04-23T17:57:22.913Z,60.63
2019-04-23T18:00:11.540Z,60.67
2019-04-23T18:05:02.814Z,60.61
2019-04-23T18:07:46.547Z,60.61
2019-04-23T18:10:14.950Z,60.25
2019-04-23T18:15:14.888Z,59.30
2019-04-23T18:17:35.430Z,59.04
2019-04-23T18:20:22.994Z,59.48
2019-04-23T18:23:00.343Z,60.57
2019-04-23T18:25:32.372Z,61.05
2019-04-23T18:28:01.781Z,61.30
2019-04-23T18:31:06.189Z,61.42
2019-04-23T18:34:01.887Z,61.60
2019-04-23T18:36:18.431Z,62.03
2019-04-23T18:38:53.097Z,62.32
2019-04-23T18:41:17.532Z,61.72
2019-04-23T18:43:57.082Z,61.88
2019-04-23T18:46:35.549Z,61.66
2019-04-23T18:49:13.174Z,61.84
2019-04-23T18:51:27.081Z,62.69
2019-04-23T18:53:54.506Z,63.18
2019-04-23T18:56:53.420Z,63.28
2019-04-23T18:59:21.464Z,63.58
2019-04-23T19:01:47.764Z,63.62
2019-04-23T19:04:39.092Z,63.31
2019-04-23T19:07:27.509Z,61.90
2019-04-23T19:13:07.284Z,61.36
2019-04-23T19:15:38.128Z,63.01
2019-04-23T19:17:56.420Z,63.77
2019-04-23T19:20:53.849Z,64.36
2019-04-23T19:23:16.248Z,64.46
2019-04-23T19:25:51.730Z,64.08
2019-04-23T19:28:26.736Z,63.25
2019-04-23T19:33:41.887Z,64.57
2019-04-23T19:36:20.264Z,64.63
2019-04-23T19:41:03.833Z,63.87
2019-04-23T19:43:41.551Z,63.97
2019-04-23T19:46:13.994Z,65.27
2019-04-23T19:48:48.729Z,66.37
2019-04-23T19:51:09.546Z,66.67
2019-04-23T19:58:44.899Z,66.76
2019-04-23T20:03:49.758Z,66.77
2019-04-23T20:06:27.363Z,65.85
2019-04-23T20:09:17.604Z,64.65
2019-04-23T20:21:19.479Z,65.72
2019-04-23T20:24:04.836Z,65.10
2019-04-23T20:26:21.658Z,65.63
2019-04-23T20:29:34.573Z,66.96
2019-04-23T20:34:55.794Z,68.17
2019-04-23T20:37:32.107Z,68.39
2019-04-23T20:40:06.972Z,68.70
2019-04-23T20:42:27.444Z,68.58
2019-04-23T20:44:59.047Z,68.43
2019-04-23T20:47:23.042Z,67.92
2019-04-23T20:49:48.349Z,67.21
2019-04-23T20:52:13.864Z,66.90
2019-04-23T20:55:01.963Z,66.70
2019-04-23T21:00:12.308Z,66.68
2019-04-23T21:05:27.905Z,67.91
2019-04-23T21:13:16.032Z,68.17
2019-04-23T21:15:52.700Z,68.02
2019-04-23T21:18:15.763Z,67.55
2019-04-23T21:20:40.130Z,67.37
2019-04-23T21:23:14.555Z,67.56
2019-04-23T21:25:47.479Z,67.66
2019-04-23T21:39:24.644Z,68.77
2019-04-23T21:42:09.654Z,69.41
2019-04-23T21:44:32.778Z,69.50
2019-04-23T21:47:08.906Z,69.47
2019-04-23T21:49:50.618Z,69.70
2019-04-23T21:52:11.492Z,69.32
2019-04-23T21:54:44.163Z,69.27
2019-04-23T21:57:08.827Z,68.92
2019-04-23T21:59:41.526Z,68.16
2019-04-23T22:02:13.441Z,68.96
2019-04-23T22:04:47.657Z,69.40
2019-04-23T22:07:16.260Z,69.70
2019-04-23T22:09:55.546Z,69.49
2019-04-23T22:12:19.597Z,69.17
2019-04-23T22:14:50.865Z,69.22
2019-04-23T22:20:10.899Z,69.46
2019-04-23T22:22:28.625Z,69.06
2019-04-23T22:24:54.684Z,68.34
2019-04-23T22:27:28.205Z,68.90
2019-04-23T22:29:54.050Z,69.07
2019-04-23T22:32:30.767Z,69.08
2019-04-23T22:35:00.486Z,68.33
2019-04-23T22:37:48.107Z,68.59
2019-04-23T22:39:59.028Z,69.50
2019-04-23T22:42:58.199Z,69.81
2019-04-23T22:47:44.443Z,69.33
2019-04-23T22:50:05.863Z,68.47
2019-04-23T22:52:40.837Z,68.24
2019-04-23T22:55:07.742Z,68.27
2019-04-23T22:58:08.062Z,68.68
2019-04-23T23:00:14.324Z,68.87
2019-04-23T23:02:58.339Z,68.38
2019-04-23T23:08:03.030Z,67.47
2019-04-23T23:10:44.311Z,66.67
2019-04-23T23:13:16.510Z,66.74
2019-04-23T23:15:32.830Z,67.13
2019-04-23T23:18:07.307Z,67.49
2019-04-23T23:20:29.545Z,67.22
2019-04-23T23:23:13.081Z,66.17
2019-04-23T23:25:33.488Z,64.88
2019-04-23T23:28:26.125Z,64.55
2019-04-23T23:30:52.029Z,65.14
2019-04-23T23:33:11.217Z,65.62
2019-04-23T23:35:37.116Z,64.90
2019-04-23T23:38:14.813Z,64.82
2019-04-23T23:41:03.741Z,65.47
2019-04-23T23:43:23.517Z,65.92
2019-04-23T23:48:13.108Z,64.45
2019-04-23T23:50:55.058Z,64.80
2019-04-23T23:53:32.883Z,65.08
2019-04-23T23:55:58.815Z,65.23
2019-04-23T23:58:23.664Z,65.38
